Terminal Aerodrome Forecast
Issued by NWS

Home | Current Version | Previous Version | Text Only | Print | Product List | Glossary On
Versions: 1 2 3 4 5 6 7 8 9 10 11 12
000
FTUS46 KLOX 221100
TAFBUR
TAF
KBUR 221135Z 2212/2312 VRB03KT P6SM SKC WS010/02030KT
     FM221700 34006KT P6SM SKC
     FM222200 17008KT P6SM SKC
     FM230300 01006KT P6SM SKC=

USA.gov is the U.S. government's official web portal to all federal, state and local government web resources and services.